Time,TemperatureF,DewpointF,PressureIn,WindDirection,WindDirectionDegrees,WindSpeedMPH,WindSpeedGustMPH,Humidity,HourlyPrecipIn,Conditions,Clouds,dailyrainin,SoftwareType,DateUTC
2013-11-20 00:02:00,-3.0,-9.0,-100.00,SE,145,0.0,1.0,75,-99.99,,,-99.99,,2013-11-20 09:02:00,
2013-11-20 00:12:00,-3.0,-9.0,-100.00,SE,145,0.0,1.0,75,-99.99,,,-99.99,,2013-11-20 09:12:00,
2013-11-20 00:21:00,-3.0,-8.0,-100.00,ESE,120,1.0,2.0,78,-99.99,,,-99.99,,2013-11-20 09:21:00,
2013-11-20 00:33:00,-3.0,-8.0,-100.00,ESE,120,1.0,2.0,78,-99.99,,,-99.99,,2013-11-20 09:33:00,
2013-11-20 00:43:00,-3.0,-8.0,-100.00,ESE,120,1.0,2.0,78,-99.99,,,-99.99,,2013-11-20 09:43:00,
2013-11-20 00:53:00,-3.0,-8.0,-100.00,SSE,150,0.0,1.0,79,-99.99,,,-99.99,,2013-11-20 09:53:00,
2013-11-20 01:03:00,-3.0,-8.0,-100.00,SSE,150,0.0,1.0,79,-99.99,,,-99.99,,2013-11-20 10:03:00,
2013-11-20 01:12:00,-3.0,-8.0,-100.00,SSE,150,0.0,1.0,79,-99.99,,,-99.99,,2013-11-20 10:12:00,
2013-11-20 01:23:00,-4.0,-9.0,-100.00,North,10,0.0,1.0,79,-99.99,,,-99.99,,2013-11-20 10:23:00,
2013-11-20 01:32:00,-4.0,-9.0,-100.00,North,10,0.0,1.0,79,-99.99,,,-99.99,,2013-11-20 10:32:00,
2013-11-20 01:43:00,-4.0,-9.0,-100.00,North,10,0.0,1.0,79,-99.99,,,-99.99,,2013-11-20 10:43:00,
2013-11-20 01:53:00,-4.0,-9.0,-100.00,NE,40,0.0,1.0,79,-99.99,,,-99.99,,2013-11-20 10:53:00,
2013-11-20 02:02:00,-4.0,-9.0,-100.00,NE,40,0.0,1.0,79,-99.99,,,-99.99,,2013-11-20 11:02:00,
2013-11-20 02:12:00,-4.0,-9.0,-100.00,NE,40,0.0,1.0,79,-99.99,,,-99.99,,2013-11-20 11:12:00,
2013-11-20 02:22:00,-4.0,-9.0,-100.00,ENE,60,1.0,1.0,79,-99.99,,,-99.99,,2013-11-20 11:22:00,
2013-11-20 02:33:00,-4.0,-9.0,-100.00,ENE,60,1.0,1.0,79,-99.99,,,-99.99,,2013-11-20 11:33:00,
2013-11-20 02:42:00,-4.0,-9.0,-100.00,ENE,60,1.0,1.0,79,-99.99,,,-99.99,,2013-11-20 11:42:00,
2013-11-20 02:52:00,-5.0,-10.0,-100.00,ESE,110,1.0,2.0,78,-99.99,,,-99.99,,2013-11-20 11:52:00,
2013-11-20 03:02:00,-5.0,-10.0,-100.00,ESE,110,1.0,2.0,78,-99.99,,,-99.99,,2013-11-20 12:02:00,
2013-11-20 03:11:00,-5.0,-10.0,-100.00,ESE,110,1.0,2.0,78,-99.99,,,-99.99,,2013-11-20 12:11:00,
2013-11-20 03:22:00,-4.0,-9.0,-100.00,NNW,340,1.0,2.0,78,-99.99,,,-99.99,,2013-11-20 12:22:00,
2013-11-20 03:32:00,-4.0,-9.0,-100.00,NNW,340,1.0,2.0,78,-99.99,,,-99.99,,2013-11-20 12:32:00,
2013-11-20 03:42:00,-4.0,-9.0,-100.00,NNW,340,1.0,2.0,78,-99.99,,,-99.99,,2013-11-20 12:42:00,
2013-11-20 03:52:00,-6.0,-11.0,-100.00,ESE,105,2.0,3.0,78,-99.99,,,-99.99,,2013-11-20 12:52:00,
2013-11-20 04:01:00,-6.0,-11.0,-100.00,ESE,105,2.0,3.0,78,-99.99,,,-99.99,,2013-11-20 13:01:00,
2013-11-20 04:11:00,-6.0,-11.0,-100.00,ESE,105,2.0,3.0,78,-99.99,,,-99.99,,2013-11-20 13:11:00,
2013-11-20 04:21:00,-7.0,-12.0,-100.00,ESE,115,0.0,1.0,77,-99.99,,,-99.99,,2013-11-20 13:21:00,
2013-11-20 04:32:00,-7.0,-12.0,-100.00,ESE,115,0.0,1.0,77,-99.99,,,-99.99,,2013-11-20 13:32:00,
2013-11-20 04:42:00,-7.0,-12.0,-100.00,ESE,115,0.0,1.0,77,-99.99,,,-99.99,,2013-11-20 13:42:00,
2013-11-20 04:52:00,-5.0,-10.0,-100.00,NNW,340,1.0,6.0,78,-99.99,,,-99.99,,2013-11-20 13:52:00,
2013-11-20 05:02:00,-5.0,-10.0,-100.00,NNW,340,1.0,6.0,78,-99.99,,,-99.99,,2013-11-20 14:02:00,
2013-11-20 05:12:00,-5.0,-10.0,-100.00,NNW,340,1.0,6.0,78,-99.99,,,-99.99,,2013-11-20 14:12:00,
2013-11-20 05:22:00,-5.0,-10.0,-100.00,East,80,1.0,1.0,76,-99.99,,,-99.99,,2013-11-20 14:22:00,
2013-11-20 05:32:00,-5.0,-10.0,-100.00,East,80,1.0,1.0,76,-99.99,,,-99.99,,2013-11-20 14:32:00,
2013-11-20 05:42:00,-5.0,-10.0,-100.00,East,80,1.0,1.0,76,-99.99,,,-99.99,,2013-11-20 14:42:00,
2013-11-20 05:52:00,-6.0,-14.0,-100.00,WNW,290,1.0,4.0,70,-99.99,,,-99.99,,2013-11-20 14:52:00,
2013-11-20 06:02:00,-6.0,-14.0,-100.00,WNW,290,1.0,4.0,70,-99.99,,,-99.99,,2013-11-20 15:02:00,
2013-11-20 06:11:00,-6.0,-14.0,-100.00,WNW,290,1.0,4.0,70,-99.99,,,-99.99,,2013-11-20 15:11:00,
2013-11-20 06:21:00,-8.0,-14.0,-100.00,North,10,0.0,2.0,74,-99.99,,,-99.99,,2013-11-20 15:21:00,
2013-11-20 06:33:00,-8.0,-14.0,-100.00,North,10,0.0,2.0,74,-99.99,,,-99.99,,2013-11-20 15:33:00,
2013-11-20 06:43:00,-8.0,-14.0,-100.00,North,10,0.0,2.0,74,-99.99,,,-99.99,,2013-11-20 15:43:00,
2013-11-20 06:53:00,-8.0,-14.0,-100.00,NNW,340,2.0,2.0,76,-99.99,,,-99.99,,2013-11-20 15:53:00,
2013-11-20 07:03:00,-8.0,-14.0,-100.00,NNW,340,2.0,2.0,76,-99.99,,,-99.99,,2013-11-20 16:03:00,
2013-11-20 07:12:00,-8.0,-14.0,-100.00,NNW,340,2.0,2.0,76,-99.99,,,-99.99,,2013-11-20 16:12:00,
2013-11-20 07:23:00,-8.0,-14.0,-100.00,ENE,60,1.0,1.0,75,-99.99,,,-99.99,,2013-11-20 16:23:00,
2013-11-20 07:34:00,-8.0,-14.0,-100.00,ENE,60,1.0,1.0,75,-99.99,,,-99.99,,2013-11-20 16:34:00,
2013-11-20 07:43:00,-8.0,-14.0,-100.00,ENE,60,1.0,1.0,75,-99.99,,,-99.99,,2013-11-20 16:43:00,
2013-11-20 07:52:00,-7.0,-13.0,-100.00,NNW,330,2.0,4.0,77,-99.99,,,-99.99,,2013-11-20 16:52:00,
2013-11-20 08:02:00,-7.0,-13.0,-100.00,NNW,330,2.0,4.0,77,-99.99,,,-99.99,,2013-11-20 17:02:00,
2013-11-20 08:12:00,-7.0,-13.0,-100.00,NNW,330,2.0,4.0,77,-99.99,,,-99.99,,2013-11-20 17:12:00,
2013-11-20 08:22:00,-9.0,-13.0,-100.00,NE,35,1.0,2.0,78,-99.99,,,-99.99,,2013-11-20 17:22:00,
2013-11-20 08:33:00,-9.0,-13.0,-100.00,NE,35,1.0,2.0,78,-99.99,,,-99.99,,2013-11-20 17:33:00,
2013-11-20 08:42:00,-9.0,-13.0,-100.00,NE,35,1.0,2.0,78,-99.99,,,-99.99,,2013-11-20 17:42:00,
2013-11-20 08:52:00,-8.0,-12.0,-100.00,ENE,60,2.0,3.0,79,-99.99,,,-99.99,,2013-11-20 17:52:00,
2013-11-20 09:01:00,-8.0,-12.0,-100.00,ENE,60,2.0,3.0,79,-99.99,,,-99.99,,2013-11-20 18:01:00,
2013-11-20 09:12:00,-8.0,-12.0,-100.00,ENE,60,2.0,3.0,79,-99.99,,,-99.99,,2013-11-20 18:12:00,
2013-11-20 09:21:00,-7.0,-13.0,-100.00,South,180,0.0,2.0,77,-99.99,,,-99.99,,2013-11-20 18:21:00,
2013-11-20 09:33:00,-7.0,-13.0,-100.00,South,180,0.0,2.0,77,-99.99,,,-99.99,,2013-11-20 18:33:00,
2013-11-20 09:42:00,-7.0,-13.0,-100.00,South,180,0.0,2.0,77,-99.99,,,-99.99,,2013-11-20 18:42:00,
2013-11-20 09:52:00,-8.0,-13.0,-100.00,NE,55,1.0,1.0,76,-99.99,,,-99.99,,2013-11-20 18:52:00,
2013-11-20 10:02:00,-8.0,-13.0,-100.00,NE,55,1.0,1.0,76,-99.99,,,-99.99,,2013-11-20 19:02:00,
2013-11-20 10:11:00,-8.0,-13.0,-100.00,NE,55,1.0,1.0,76,-99.99,,,-99.99,,2013-11-20 19:11:00,
2013-11-20 10:21:00,-10.0,-15.0,-100.00,ENE,60,0.0,3.0,76,-99.99,,,-99.99,,2013-11-20 19:21:00,
2013-11-20 10:32:00,-10.0,-15.0,-100.00,ENE,60,0.0,3.0,76,-99.99,,,-99.99,,2013-11-20 19:32:00,
2013-11-20 10:42:00,-10.0,-15.0,-100.00,ENE,60,0.0,3.0,76,-99.99,,,-99.99,,2013-11-20 19:42:00,
2013-11-20 10:52:00,-9.0,-14.0,-100.00,NW,320,1.0,3.0,76,-99.99,,,-99.99,,2013-11-20 19:52:00,
2013-11-20 11:01:00,-9.0,-14.0,-100.00,NW,320,1.0,3.0,76,-99.99,,,-99.99,,2013-11-20 20:01:00,
2013-11-20 11:11:00,-9.0,-14.0,-100.00,NW,320,1.0,3.0,76,-99.99,,,-99.99,,2013-11-20 20:11:00,
2013-11-20 11:21:00,-10.0,-16.0,-100.00,East,85,1.0,1.0,76,-99.99,,,-99.99,,2013-11-20 20:21:00,
2013-11-20 11:32:00,-10.0,-16.0,-100.00,East,85,1.0,1.0,76,-99.99,,,-99.99,,2013-11-20 20:32:00,
2013-11-20 11:42:00,-10.0,-16.0,-100.00,East,85,1.0,1.0,76,-99.99,,,-99.99,,2013-11-20 20:42:00,
2013-11-20 11:52:00,-6.0,-11.0,-100.00,South,185,0.0,2.0,78,-99.99,,,-99.99,,2013-11-20 20:52:00,
2013-11-20 12:02:00,-6.0,-11.0,-100.00,South,185,0.0,2.0,78,-99.99,,,-99.99,,2013-11-20 21:02:00,
2013-11-20 12:11:00,-6.0,-11.0,-100.00,South,185,0.0,2.0,78,-99.99,,,-99.99,,2013-11-20 21:11:00,
2013-11-20 12:21:00,-3.0,-8.0,-100.00,East,80,0.0,2.0,76,-99.99,,,-99.99,,2013-11-20 21:21:00,
2013-11-20 12:33:00,-3.0,-8.0,-100.00,East,80,0.0,2.0,76,-99.99,,,-99.99,,2013-11-20 21:33:00,
2013-11-20 12:43:00,-3.0,-8.0,-100.00,East,80,0.0,2.0,76,-99.99,,,-99.99,,2013-11-20 21:43:00,
2013-11-20 12:53:00,-3.0,-9.0,-100.00,SSE,150,2.0,3.0,76,-99.99,,,-99.99,,2013-11-20 21:53:00,
2013-11-20 13:03:00,-3.0,-9.0,-100.00,SSE,150,2.0,3.0,76,-99.99,,,-99.99,,2013-11-20 22:03:00,
2013-11-20 13:13:00,-3.0,-9.0,-100.00,SSE,150,2.0,3.0,76,-99.99,,,-99.99,,2013-11-20 22:13:00,
2013-11-20 13:23:00,-1.0,-7.0,-100.00,SSE,155,1.0,4.0,74,-99.99,,,-99.99,,2013-11-20 22:23:00,
2013-11-20 13:32:00,-1.0,-7.0,-100.00,SSE,155,1.0,4.0,74,-99.99,,,-99.99,,2013-11-20 22:32:00,
2013-11-20 13:42:00,-1.0,-7.0,-100.00,SSE,155,1.0,4.0,74,-99.99,,,-99.99,,2013-11-20 22:42:00,
2013-11-20 13:53:00,-1.0,-8.0,-100.00,SE,130,2.0,6.0,72,-99.99,,,-99.99,,2013-11-20 22:53:00,
2013-11-20 14:02:00,-1.0,-8.0,-100.00,SE,130,2.0,6.0,72,-99.99,,,-99.99,,2013-11-20 23:02:00,
2013-11-20 14:12:00,-1.0,-8.0,-100.00,SE,130,2.0,6.0,72,-99.99,,,-99.99,,2013-11-20 23:12:00,
2013-11-20 14:21:00,-1.0,-7.0,-100.00,SE,135,2.0,3.0,72,-99.99,,,-99.99,,2013-11-20 23:21:00,
2013-11-20 14:32:00,-1.0,-7.0,-100.00,SE,135,2.0,3.0,72,-99.99,,,-99.99,,2013-11-20 23:32:00,
2013-11-20 14:42:00,-1.0,-7.0,-100.00,SE,135,2.0,3.0,72,-99.99,,,-99.99,,2013-11-20 23:42:00,
2013-11-20 14:52:00,-1.0,-8.0,-100.00,ESE,115,1.0,3.0,74,-99.99,,,-99.99,,2013-11-20 23:52:00,
2013-11-20 15:02:00,-1.0,-8.0,-100.00,ESE,115,1.0,3.0,74,-99.99,,,-99.99,,2013-11-21 00:02:00,
2013-11-20 15:11:00,-1.0,-8.0,-100.00,ESE,115,1.0,3.0,74,-99.99,,,-99.99,,2013-11-21 00:11:00,
2013-11-20 15:21:00,-1.0,-8.0,-100.00,ESE,110,3.0,4.0,73,-99.99,,,-99.99,,2013-11-21 00:21:00,
2013-11-20 15:32:00,-1.0,-8.0,-100.00,ESE,110,3.0,4.0,73,-99.99,,,-99.99,,2013-11-21 00:32:00,
2013-11-20 15:42:00,-1.0,-8.0,-100.00,ESE,110,3.0,4.0,73,-99.99,,,-99.99,,2013-11-21 00:42:00,
2013-11-20 15:52:00,-1.0,-8.0,-100.00,ESE,120,5.0,6.0,74,-99.99,,,-99.99,,2013-11-21 00:52:00,
2013-11-20 16:02:00,-1.0,-8.0,-100.00,ESE,120,5.0,6.0,74,-99.99,,,-99.99,,2013-11-21 01:02:00,
2013-11-20 16:11:00,-1.0,-8.0,-100.00,ESE,120,5.0,6.0,74,-99.99,,,-99.99,,2013-11-21 01:11:00,
2013-11-20 16:21:00,-2.0,-8.0,-100.00,ESE,110,3.0,4.0,73,-99.99,,,-99.99,,2013-11-21 01:21:00,
2013-11-20 16:32:00,-2.0,-8.0,-100.00,ESE,110,3.0,4.0,73,-99.99,,,-99.99,,2013-11-21 01:32:00,
2013-11-20 16:42:00,-2.0,-8.0,-100.00,ESE,110,3.0,4.0,73,-99.99,,,-99.99,,2013-11-21 01:42:00,
2013-11-20 16:52:00,-3.0,-9.0,-100.00,East,85,4.0,9.0,75,-99.99,,,-99.99,,2013-11-21 01:52:00,
2013-11-20 17:01:00,-3.0,-9.0,-100.00,East,85,4.0,9.0,75,-99.99,,,-99.99,,2013-11-21 02:01:00,
2013-11-20 17:11:00,-3.0,-9.0,-100.00,East,85,4.0,9.0,75,-99.99,,,-99.99,,2013-11-21 02:11:00,
2013-11-20 17:21:00,-3.0,-9.0,-100.00,ESE,115,3.0,6.0,75,-99.99,,,-99.99,,2013-11-21 02:21:00,
2013-11-20 17:32:00,-3.0,-9.0,-100.00,ESE,115,3.0,6.0,75,-99.99,,,-99.99,,2013-11-21 02:32:00,
2013-11-20 17:42:00,-3.0,-9.0,-100.00,ESE,115,3.0,6.0,75,-99.99,,,-99.99,,2013-11-21 02:42:00,
2013-11-20 18:11:00,-3.0,-10.0,-100.00,East,90,7.0,19.0,71,-99.99,,,-99.99,,2013-11-21 03:11:00,
2013-11-20 18:21:00,4.0,-9.0,-100.00,NE,35,15.0,24.0,53,-99.99,,,-99.99,,2013-11-21 03:21:00,
2013-11-20 18:33:00,4.0,-9.0,-100.00,NE,35,15.0,24.0,53,-99.99,,,-99.99,,2013-11-21 03:33:00,
2013-11-20 18:43:00,4.0,-9.0,-100.00,NE,35,15.0,24.0,53,-99.99,,,-99.99,,2013-11-21 03:43:00,
2013-11-20 18:53:00,4.0,-12.0,-100.00,North,5,15.0,26.0,46,-99.99,,,-99.99,,2013-11-21 03:53:00,
2013-11-20 19:03:00,4.0,-12.0,-100.00,North,5,15.0,26.0,46,-99.99,,,-99.99,,2013-11-21 04:03:00,
2013-11-20 19:13:00,4.0,-12.0,-100.00,North,5,15.0,26.0,46,-99.99,,,-99.99,,2013-11-21 04:13:00,
2013-11-20 19:23:00,10.0,-15.0,-100.00,NNE,20,22.0,39.0,30,-99.99,,,-99.99,,2013-11-21 04:23:00,
2013-11-20 19:33:00,10.0,-15.0,-100.00,NNE,20,22.0,39.0,30,-99.99,,,-99.99,,2013-11-21 04:33:00,
2013-11-20 20:22:00,6.0,-15.0,-100.00,NNE,15,12.0,24.0,35,-99.99,,,-99.99,,2013-11-21 05:22:00,
2013-11-20 20:32:00,6.0,-15.0,-100.00,NNE,15,12.0,24.0,35,-99.99,,,-99.99,,2013-11-21 05:32:00,
2013-11-20 20:42:00,6.0,-15.0,-100.00,NNE,15,12.0,24.0,35,-99.99,,,-99.99,,2013-11-21 05:42:00,
2013-11-20 20:52:00,8.0,-15.0,-100.00,NE,50,9.0,22.0,33,-99.99,,,-99.99,,2013-11-21 05:52:00,
2013-11-20 21:03:00,8.0,-15.0,-100.00,NE,50,9.0,22.0,33,-99.99,,,-99.99,,2013-11-21 06:03:00,
2013-11-20 21:11:00,7.0,-16.0,-100.00,NE,40,10.0,16.0,34,-99.99,,,-99.99,,2013-11-21 06:11:00,
2013-11-20 21:12:00,8.0,-15.0,-100.00,NE,50,9.0,22.0,33,-99.99,,,-99.99,,2013-11-21 06:12:00,
2013-11-20 21:22:00,7.0,-15.0,-100.00,NE,45,11.0,17.0,34,-99.99,,,-99.99,,2013-11-21 06:22:00,
2013-11-20 21:33:00,7.0,-15.0,-100.00,NE,45,11.0,17.0,34,-99.99,,,-99.99,,2013-11-21 06:33:00,
2013-11-20 21:43:00,7.0,-15.0,-100.00,NE,45,11.0,17.0,34,-99.99,,,-99.99,,2013-11-21 06:43:00,
2013-11-20 21:52:00,7.0,-16.0,-100.00,NE,40,10.0,16.0,34,-99.99,,,-99.99,,2013-11-21 06:52:00,
2013-11-20 22:02:00,7.0,-16.0,-100.00,NE,40,10.0,16.0,34,-99.99,,,-99.99,,2013-11-21 07:02:00,
2013-11-20 22:22:00,6.0,-16.0,-100.00,North,10,19.0,26.0,35,-99.99,,,-99.99,,2013-11-21 07:22:00,
2013-11-20 22:33:00,6.0,-16.0,-100.00,North,10,19.0,26.0,35,-99.99,,,-99.99,,2013-11-21 07:33:00,
2013-11-20 22:42:00,6.0,-16.0,-100.00,North,10,19.0,26.0,35,-99.99,,,-99.99,,2013-11-21 07:42:00,
2013-11-20 22:52:00,5.0,-16.0,-100.00,North,0,19.0,26.0,36,-99.99,,,-99.99,,2013-11-21 07:52:00,
2013-11-20 23:02:00,5.0,-16.0,-100.00,North,0,19.0,26.0,36,-99.99,,,-99.99,,2013-11-21 08:02:00,
2013-11-20 23:12:00,5.0,-16.0,-100.00,North,0,19.0,26.0,36,-99.99,,,-99.99,,2013-11-21 08:12:00,
2013-11-20 23:21:00,5.0,-16.0,-100.00,North,0,20.0,28.0,36,-99.99,,,-99.99,,2013-11-21 08:21:00,
2013-11-20 23:32:00,5.0,-16.0,-100.00,North,0,20.0,28.0,36,-99.99,,,-99.99,,2013-11-21 08:32:00,
2013-11-20 23:42:00,5.0,-16.0,-100.00,North,0,20.0,28.0,36,-99.99,,,-99.99,,2013-11-21 08:42:00,
2013-11-20 23:52:00,5.0,-16.0,-100.00,NNE,15,20.0,24.0,36,-99.99,,,-99.99,,2013-11-21 08:52:00,